sensor_id;sensor_type;location;lat;lon;timestamp;temperature;humidity
24226;DHT22;51462;51.422;5.514;2022-09-02T00:01:26;20.80;99.90
24226;DHT22;51462;51.422;5.514;2022-09-02T00:03:59;20.80;99.90
24226;DHT22;51462;51.422;5.514;2022-09-02T00:06:26;20.80;99.90
24226;DHT22;51462;51.422;5.514;2022-09-02T00:08:52;20.90;99.50
24226;DHT22;51462;51.422;5.514;2022-09-02T00:11:21;20.40;99.80
24226;DHT22;51462;51.422;5.514;2022-09-02T00:13:47;20.70;99.90
24226;DHT22;51462;51.422;5.514;2022-09-02T00:16:13;20.50;99.90
24226;DHT22;51462;51.422;5.514;2022-09-02T00:18:39;20.60;99.90
24226;DHT22;51462;51.422;5.514;2022-09-02T00:21:06;20.50;99.90
24226;DHT22;51462;51.422;5.514;2022-09-02T00:23:32;20.40;99.90
24226;DHT22;51462;51.422;5.514;2022-09-02T00:25:58;20.20;99.90
24226;DHT22;51462;51.422;5.514;2022-09-02T00:28:24;20.10;99.90
24226;DHT22;51462;51.422;5.514;2022-09-02T00:30:49;20.20;99.90
24226;DHT22;51462;51.422;5.514;2022-09-02T00:33:15;20.20;99.90
24226;DHT22;51462;51.422;5.514;2022-09-02T00:35:42;20.00;99.90
24226;DHT22;51462;51.422;5.514;2022-09-02T00:38:08;20.10;99.90
24226;DHT22;51462;51.422;5.514;2022-09-02T00:40:36;20.10;99.90
24226;DHT22;51462;51.422;5.514;2022-09-02T00:43:06;20.20;99.90
24226;DHT22;51462;51.422;5.514;2022-09-02T00:45:32;20.20;99.90
24226;DHT22;51462;51.422;5.514;2022-09-02T00:47:57;20.10;99.90
24226;DHT22;51462;51.422;5.514;2022-09-02T00:50:29;20.00;99.90
24226;DHT22;51462;51.422;5.514;2022-09-02T00:53:04;20.00;99.90
24226;DHT22;51462;51.422;5.514;2022-09-02T00:55:34;19.90;99.90
24226;DHT22;51462;51.422;5.514;2022-09-02T00:58:07;19.50;99.90
24226;DHT22;51462;51.422;5.514;2022-09-02T01:00:37;19.30;99.90
24226;DHT22;51462;51.422;5.514;2022-09-02T01:03:06;19.40;99.90
24226;DHT22;51462;51.422;5.514;2022-09-02T01:05:35;19.40;99.90
24226;DHT22;51462;51.422;5.514;2022-09-02T01:08:01;19.10;99.90
24226;DHT22;51462;51.422;5.514;2022-09-02T01:10:32;19.30;99.90
24226;DHT22;51462;51.422;5.514;2022-09-02T01:13:02;19.30;99.90
24226;DHT22;51462;51.422;5.514;2022-09-02T01:15:32;19.30;99.90
24226;DHT22;51462;51.422;5.514;2022-09-02T01:18:01;19.40;99.90
24226;DHT22;51462;51.422;5.514;2022-09-02T01:20:28;19.20;99.90
24226;DHT22;51462;51.422;5.514;2022-09-02T01:22:54;19.10;99.90
24226;DHT22;51462;51.422;5.514;2022-09-02T01:25:24;19.00;99.90
24226;DHT22;51462;51.422;5.514;2022-09-02T01:27:52;18.80;99.90
24226;DHT22;51462;51.422;5.514;2022-09-02T01:30:21;18.70;99.90
24226;DHT22;51462;51.422;5.514;2022-09-02T01:32:46;18.50;99.90
24226;DHT22;51462;51.422;5.514;2022-09-02T01:35:13;18.30;99.90
24226;DHT22;51462;51.422;5.514;2022-09-02T01:37:39;18.40;99.90
24226;DHT22;51462;51.422;5.514;2022-09-02T01:40:07;18.70;99.90
24226;DHT22;51462;51.422;5.514;2022-09-02T01:42:33;18.60;99.90
24226;DHT22;51462;51.422;5.514;2022-09-02T01:44:59;18.40;99.90
24226;DHT22;51462;51.422;5.514;2022-09-02T01:47:26;18.50;99.90
24226;DHT22;51462;51.422;5.514;2022-09-02T01:49:52;18.60;99.90
24226;DHT22;51462;51.422;5.514;2022-09-02T01:52:21;18.80;99.90
24226;DHT22;51462;51.422;5.514;2022-09-02T01:54:46;18.90;99.90
24226;DHT22;51462;51.422;5.514;2022-09-02T01:57:12;18.90;99.90
24226;DHT22;51462;51.422;5.514;2022-09-02T01:59:39;18.90;99.90
24226;DHT22;51462;51.422;5.514;2022-09-02T02:02:06;18.60;99.90
24226;DHT22;51462;51.422;5.514;2022-09-02T02:04:31;18.40;99.90
24226;DHT22;51462;51.422;5.514;2022-09-02T02:06:57;18.40;99.90
24226;DHT22;51462;51.422;5.514;2022-09-02T02:09:24;18.60;99.90
24226;DHT22;51462;51.422;5.514;2022-09-02T02:11:50;18.40;99.90
24226;DHT22;51462;51.422;5.514;2022-09-02T02:14:16;18.20;99.90
24226;DHT22;51462;51.422;5.514;2022-09-02T02:16:42;18.60;99.90
24226;DHT22;51462;51.422;5.514;2022-09-02T02:19:07;18.40;99.90
24226;DHT22;51462;51.422;5.514;2022-09-02T02:21:33;18.20;99.90
24226;DHT22;51462;51.422;5.514;2022-09-02T02:24:01;18.10;99.90
24226;DHT22;51462;51.422;5.514;2022-09-02T02:26:28;18.20;99.90
24226;DHT22;51462;51.422;5.514;2022-09-02T02:28:53;18.10;99.90
24226;DHT22;51462;51.422;5.514;2022-09-02T02:33:49;18.20;99.90
24226;DHT22;51462;51.422;5.514;2022-09-02T02:36:15;18.00;99.90
24226;DHT22;51462;51.422;5.514;2022-09-02T02:38:41;17.80;99.90
24226;DHT22;51462;51.422;5.514;2022-09-02T02:41:09;17.90;99.90
24226;DHT22;51462;51.422;5.514;2022-09-02T02:43:35;17.90;99.90
24226;DHT22;51462;51.422;5.514;2022-09-02T02:46:02;17.80;99.90
24226;DHT22;51462;51.422;5.514;2022-09-02T02:48:27;18.00;99.90
24226;DHT22;51462;51.422;5.514;2022-09-02T02:50:53;18.30;99.90
24226;DHT22;51462;51.422;5.514;2022-09-02T02:53:19;18.30;99.90
24226;DHT22;51462;51.422;5.514;2022-09-02T02:55:45;18.20;99.90
24226;DHT22;51462;51.422;5.514;2022-09-02T02:58:10;18.20;99.90
24226;DHT22;51462;51.422;5.514;2022-09-02T03:00:36;18.00;99.90
24226;DHT22;51462;51.422;5.514;2022-09-02T03:03:05;18.10;99.90
24226;DHT22;51462;51.422;5.514;2022-09-02T03:05:33;18.00;99.90
24226;DHT22;51462;51.422;5.514;2022-09-02T03:08:00;17.70;99.90
24226;DHT22;51462;51.422;5.514;2022-09-02T03:10:27;18.00;99.90
24226;DHT22;51462;51.422;5.514;2022-09-02T03:12:55;18.20;99.90
24226;DHT22;51462;51.422;5.514;2022-09-02T03:15:21;18.20;99.90
24226;DHT22;51462;51.422;5.514;2022-09-02T03:17:48;18.20;99.90
24226;DHT22;51462;51.422;5.514;2022-09-02T03:20:15;17.90;99.90
24226;DHT22;51462;51.422;5.514;2022-09-02T03:22:44;17.80;99.90
24226;DHT22;51462;51.422;5.514;2022-09-02T03:25:10;17.70;99.90
24226;DHT22;51462;51.422;5.514;2022-09-02T03:27:37;17.70;99.90
24226;DHT22;51462;51.422;5.514;2022-09-02T03:30:05;17.60;99.90
24226;DHT22;51462;51.422;5.514;2022-09-02T03:32:31;17.70;99.90
24226;DHT22;51462;51.422;5.514;2022-09-02T03:34:57;17.40;99.90
24226;DHT22;51462;51.422;5.514;2022-09-02T03:37:23;17.40;99.90
24226;DHT22;51462;51.422;5.514;2022-09-02T03:39:48;17.40;99.90
24226;DHT22;51462;51.422;5.514;2022-09-02T03:42:14;17.40;99.90
24226;DHT22;51462;51.422;5.514;2022-09-02T03:44:40;17.50;99.90
24226;DHT22;51462;51.422;5.514;2022-09-02T03:47:06;17.40;99.90
24226;DHT22;51462;51.422;5.514;2022-09-02T03:49:32;17.30;99.90
24226;DHT22;51462;51.422;5.514;2022-09-02T03:51:58;17.40;99.90
24226;DHT22;51462;51.422;5.514;2022-09-02T03:54:24;17.30;99.90
24226;DHT22;51462;51.422;5.514;2022-09-02T03:56:49;17.40;99.90
24226;DHT22;51462;51.422;5.514;2022-09-02T03:59:15;17.50;99.90
24226;DHT22;51462;51.422;5.514;2022-09-02T04:01:41;17.50;99.90
24226;DHT22;51462;51.422;5.514;2022-09-02T04:04:07;17.30;99.90
24226;DHT22;51462;51.422;5.514;2022-09-02T04:06:33;17.60;99.90
24226;DHT22;51462;51.422;5.514;2022-09-02T04:08:59;17.50;99.90
24226;DHT22;51462;51.422;5.514;2022-09-02T04:11:25;17.40;99.90
24226;DHT22;51462;51.422;5.514;2022-09-02T04:13:51;17.40;99.90
24226;DHT22;51462;51.422;5.514;2022-09-02T04:16:21;17.30;99.90
24226;DHT22;51462;51.422;5.514;2022-09-02T04:18:51;17.50;99.90
24226;DHT22;51462;51.422;5.514;2022-09-02T04:21:17;17.50;99.90
24226;DHT22;51462;51.422;5.514;2022-09-02T04:23:44;17.50;99.90
24226;DHT22;51462;51.422;5.514;2022-09-02T04:26:12;17.40;99.90
24226;DHT22;51462;51.422;5.514;2022-09-02T04:28:39;17.50;99.90
24226;DHT22;51462;51.422;5.514;2022-09-02T04:31:06;17.60;99.90
24226;DHT22;51462;51.422;5.514;2022-09-02T04:33:32;17.40;99.90
24226;DHT22;51462;51.422;5.514;2022-09-02T04:35:58;17.50;99.90
24226;DHT22;51462;51.422;5.514;2022-09-02T04:38:24;17.60;99.90
24226;DHT22;51462;51.422;5.514;2022-09-02T04:40:49;17.60;99.90
24226;DHT22;51462;51.422;5.514;2022-09-02T04:43:15;17.60;99.90
24226;DHT22;51462;51.422;5.514;2022-09-02T04:45:44;17.80;99.90
24226;DHT22;51462;51.422;5.514;2022-09-02T04:48:10;17.80;99.90
24226;DHT22;51462;51.422;5.514;2022-09-02T04:50:37;17.90;99.90
24226;DHT22;51462;51.422;5.514;2022-09-02T04:53:04;18.10;99.90
24226;DHT22;51462;51.422;5.514;2022-09-02T04:55:31;18.30;99.90
24226;DHT22;51462;51.422;5.514;2022-09-02T04:57:57;18.30;99.90
24226;DHT22;51462;51.422;5.514;2022-09-02T05:00:22;18.20;99.90
24226;DHT22;51462;51.422;5.514;2022-09-02T05:02:49;18.10;99.90
24226;DHT22;51462;51.422;5.514;2022-09-02T05:05:14;18.30;99.90
24226;DHT22;51462;51.422;5.514;2022-09-02T05:07:40;18.70;99.90
24226;DHT22;51462;51.422;5.514;2022-09-02T05:10:06;18.80;99.90
24226;DHT22;51462;51.422;5.514;2022-09-02T05:12:33;18.70;99.90
24226;DHT22;51462;51.422;5.514;2022-09-02T05:15:00;18.60;99.90
24226;DHT22;51462;51.422;5.514;2022-09-02T05:17:27;18.50;99.90
24226;DHT22;51462;51.422;5.514;2022-09-02T05:19:53;18.60;99.90
24226;DHT22;51462;51.422;5.514;2022-09-02T05:22:19;18.80;99.90
24226;DHT22;51462;51.422;5.514;2022-09-02T05:24:44;18.90;99.90
24226;DHT22;51462;51.422;5.514;2022-09-02T05:27:10;18.90;99.90
24226;DHT22;51462;51.422;5.514;2022-09-02T05:29:36;19.20;99.90
24226;DHT22;51462;51.422;5.514;2022-09-02T05:32:02;19.10;99.90
24226;DHT22;51462;51.422;5.514;2022-09-02T05:34:29;19.10;99.90
24226;DHT22;51462;51.422;5.514;2022-09-02T05:36:54;19.10;99.90
24226;DHT22;51462;51.422;5.514;2022-09-02T05:39:21;19.00;99.90
24226;DHT22;51462;51.422;5.514;2022-09-02T05:41:46;19.10;99.90
24226;DHT22;51462;51.422;5.514;2022-09-02T05:44:12;19.10;99.90
24226;DHT22;51462;51.422;5.514;2022-09-02T05:46:38;19.20;99.90
24226;DHT22;51462;51.422;5.514;2022-09-02T05:49:04;19.40;99.90
24226;DHT22;51462;51.422;5.514;2022-09-02T05:51:41;19.40;99.90
24226;DHT22;51462;51.422;5.514;2022-09-02T05:54:12;19.50;99.90
24226;DHT22;51462;51.422;5.514;2022-09-02T05:56:39;19.50;99.90
24226;DHT22;51462;51.422;5.514;2022-09-02T05:59:05;19.20;99.90
24226;DHT22;51462;51.422;5.514;2022-09-02T06:01:32;19.40;99.90
24226;DHT22;51462;51.422;5.514;2022-09-02T06:03:58;19.40;99.90
24226;DHT22;51462;51.422;5.514;2022-09-02T06:06:27;19.20;99.90
24226;DHT22;51462;51.422;5.514;2022-09-02T06:08:52;19.20;99.90
24226;DHT22;51462;51.422;5.514;2022-09-02T06:11:18;19.30;99.90
24226;DHT22;51462;51.422;5.514;2022-09-02T06:13:44;19.30;99.90
24226;DHT22;51462;51.422;5.514;2022-09-02T06:16:14;19.40;99.90
24226;DHT22;51462;51.422;5.514;2022-09-02T06:18:40;19.50;99.90
24226;DHT22;51462;51.422;5.514;2022-09-02T06:21:05;19.70;99.90
24226;DHT22;51462;51.422;5.514;2022-09-02T06:23:34;19.60;99.90
24226;DHT22;51462;51.422;5.514;2022-09-02T06:26:00;19.50;99.90
24226;DHT22;51462;51.422;5.514;2022-09-02T06:28:26;19.50;99.90
24226;DHT22;51462;51.422;5.514;2022-09-02T06:30:51;19.60;99.90
24226;DHT22;51462;51.422;5.514;2022-09-02T06:33:17;19.40;99.90
24226;DHT22;51462;51.422;5.514;2022-09-02T06:35:44;19.50;99.90
24226;DHT22;51462;51.422;5.514;2022-09-02T06:38:12;19.60;99.90
24226;DHT22;51462;51.422;5.514;2022-09-02T06:40:46;19.50;99.90
24226;DHT22;51462;51.422;5.514;2022-09-02T06:43:11;19.70;99.90
24226;DHT22;51462;51.422;5.514;2022-09-02T06:45:41;19.60;99.90
24226;DHT22;51462;51.422;5.514;2022-09-02T06:48:07;19.80;99.90
24226;DHT22;51462;51.422;5.514;2022-09-02T06:50:38;19.90;99.90
24226;DHT22;51462;51.422;5.514;2022-09-02T06:53:04;19.80;99.90
24226;DHT22;51462;51.422;5.514;2022-09-02T06:55:35;19.90;99.90
24226;DHT22;51462;51.422;5.514;2022-09-02T06:58:00;19.80;99.90
24226;DHT22;51462;51.422;5.514;2022-09-02T07:00:26;19.90;99.90
24226;DHT22;51462;51.422;5.514;2022-09-02T07:02:52;19.90;99.90
24226;DHT22;51462;51.422;5.514;2022-09-02T07:05:38;19.80;99.90
24226;DHT22;51462;51.422;5.514;2022-09-02T07:08:04;19.80;99.90
24226;DHT22;51462;51.422;5.514;2022-09-02T07:10:30;19.80;99.90
24226;DHT22;51462;51.422;5.514;2022-09-02T07:12:56;19.70;99.90
24226;DHT22;51462;51.422;5.514;2022-09-02T07:15:22;19.80;99.90
24226;DHT22;51462;51.422;5.514;2022-09-02T07:17:48;19.80;99.90
24226;DHT22;51462;51.422;5.514;2022-09-02T07:20:14;20.00;99.90
24226;DHT22;51462;51.422;5.514;2022-09-02T07:22:40;20.10;99.90
24226;DHT22;51462;51.422;5.514;2022-09-02T07:25:07;20.10;99.90
24226;DHT22;51462;51.422;5.514;2022-09-02T07:27:34;20.00;99.90
24226;DHT22;51462;51.422;5.514;2022-09-02T07:30:00;20.10;99.90
24226;DHT22;51462;51.422;5.514;2022-09-02T07:32:25;20.00;99.90
24226;DHT22;51462;51.422;5.514;2022-09-02T07:34:51;20.10;99.90
24226;DHT22;51462;51.422;5.514;2022-09-02T07:37:16;20.10;99.90
24226;DHT22;51462;51.422;5.514;2022-09-02T07:39:42;20.00;99.90
24226;DHT22;51462;51.422;5.514;2022-09-02T07:42:09;20.00;99.90
24226;DHT22;51462;51.422;5.514;2022-09-02T07:44:35;20.10;99.90
24226;DHT22;51462;51.422;5.514;2022-09-02T07:47:03;20.20;99.90
24226;DHT22;51462;51.422;5.514;2022-09-02T07:49:28;20.20;99.90
24226;DHT22;51462;51.422;5.514;2022-09-02T07:51:54;20.10;99.90
24226;DHT22;51462;51.422;5.514;2022-09-02T07:54:22;20.10;99.90
24226;DHT22;51462;51.422;5.514;2022-09-02T07:56:49;20.20;99.90
24226;DHT22;51462;51.422;5.514;2022-09-02T07:59:15;20.30;99.90
24226;DHT22;51462;51.422;5.514;2022-09-02T08:01:41;20.30;99.90
24226;DHT22;51462;51.422;5.514;2022-09-02T08:04:10;20.30;99.90
24226;DHT22;51462;51.422;5.514;2022-09-02T08:06:38;20.30;99.90
24226;DHT22;51462;51.422;5.514;2022-09-02T08:09:06;20.30;99.90
24226;DHT22;51462;51.422;5.514;2022-09-02T08:11:36;20.40;99.90
24226;DHT22;51462;51.422;5.514;2022-09-02T08:14:05;20.50;99.90
24226;DHT22;51462;51.422;5.514;2022-09-02T08:16:30;20.50;99.90
24226;DHT22;51462;51.422;5.514;2022-09-02T08:18:56;20.60;99.90
24226;DHT22;51462;51.422;5.514;2022-09-02T08:21:22;20.50;99.90
24226;DHT22;51462;51.422;5.514;2022-09-02T08:23:49;20.50;99.90
24226;DHT22;51462;51.422;5.514;2022-09-02T08:26:15;20.80;99.90
24226;DHT22;51462;51.422;5.514;2022-09-02T08:28:42;20.70;99.90
24226;DHT22;51462;51.422;5.514;2022-09-02T08:31:07;20.60;99.90
24226;DHT22;51462;51.422;5.514;2022-09-02T08:33:33;20.70;99.90
24226;DHT22;51462;51.422;5.514;2022-09-02T08:36:04;20.80;99.90
24226;DHT22;51462;51.422;5.514;2022-09-02T08:38:31;20.90;99.90
24226;DHT22;51462;51.422;5.514;2022-09-02T08:40:56;20.90;99.90
24226;DHT22;51462;51.422;5.514;2022-09-02T08:43:42;21.00;99.90
24226;DHT22;51462;51.422;5.514;2022-09-02T08:46:10;21.00;99.90
24226;DHT22;51462;51.422;5.514;2022-09-02T08:48:56;20.90;99.90
24226;DHT22;51462;51.422;5.514;2022-09-02T08:51:33;21.00;99.90
24226;DHT22;51462;51.422;5.514;2022-09-02T08:54:06;21.20;99.90
24226;DHT22;51462;51.422;5.514;2022-09-02T08:56:33;21.20;99.90
24226;DHT22;51462;51.422;5.514;2022-09-02T08:58:58;21.30;99.90
24226;DHT22;51462;51.422;5.514;2022-09-02T09:02:01;21.30;99.90
24226;DHT22;51462;51.422;5.514;2022-09-02T09:05:17;21.40;99.90
24226;DHT22;51462;51.422;5.514;2022-09-02T09:10:45;21.50;99.90
24226;DHT22;51462;51.422;5.514;2022-09-02T09:18:42;21.70;99.90
24226;DHT22;51462;51.422;5.514;2022-09-02T09:21:11;21.70;99.90
24226;DHT22;51462;51.422;5.514;2022-09-02T09:23:39;21.80;99.90
24226;DHT22;51462;51.422;5.514;2022-09-02T09:26:10;21.80;99.90
24226;DHT22;51462;51.422;5.514;2022-09-02T09:31:09;21.90;99.90
24226;DHT22;51462;51.422;5.514;2022-09-02T09:33:35;22.00;99.90
24226;DHT22;51462;51.422;5.514;2022-09-02T09:36:01;22.00;99.90
24226;DHT22;51462;51.422;5.514;2022-09-02T09:38:32;22.10;99.90
24226;DHT22;51462;51.422;5.514;2022-09-02T09:41:15;22.10;99.90
24226;DHT22;51462;51.422;5.514;2022-09-02T09:43:43;22.20;99.90
24226;DHT22;51462;51.422;5.514;2022-09-02T09:46:26;22.30;99.90
24226;DHT22;51462;51.422;5.514;2022-09-02T09:48:53;22.30;99.90
24226;DHT22;51462;51.422;5.514;2022-09-02T09:51:19;22.40;99.90
24226;DHT22;51462;51.422;5.514;2022-09-02T09:53:44;22.40;99.90
24226;DHT22;51462;51.422;5.514;2022-09-02T10:03:54;22.80;99.90
24226;DHT22;51462;51.422;5.514;2022-09-02T10:14:23;22.90;99.90
24226;DHT22;51462;51.422;5.514;2022-09-02T10:17:17;23.00;99.90
24226;DHT22;51462;51.422;5.514;2022-09-02T10:22:51;23.10;99.90
24226;DHT22;51462;51.422;5.514;2022-09-02T10:28:20;23.30;99.90
24226;DHT22;51462;51.422;5.514;2022-09-02T10:36:59;23.60;99.90
24226;DHT22;51462;51.422;5.514;2022-09-02T10:42:55;23.70;99.90
24226;DHT22;51462;51.422;5.514;2022-09-02T10:45:41;23.90;99.90
24226;DHT22;51462;51.422;5.514;2022-09-02T10:51:14;24.20;99.90
24226;DHT22;51462;51.422;5.514;2022-09-02T10:56:53;24.40;99.90
24226;DHT22;51462;51.422;5.514;2022-09-02T10:59:28;24.40;99.90
24226;DHT22;51462;51.422;5.514;2022-09-02T11:02:28;24.70;99.90
24226;DHT22;51462;51.422;5.514;2022-09-02T11:05:01;24.60;99.90
24226;DHT22;51462;51.422;5.514;2022-09-02T11:07:41;24.70;99.90
24226;DHT22;51462;51.422;5.514;2022-09-02T11:10:13;24.70;99.90
24226;DHT22;51462;51.422;5.514;2022-09-02T11:13:34;24.90;99.90
24226;DHT22;51462;51.422;5.514;2022-09-02T11:15:48;24.80;99.90
24226;DHT22;51462;51.422;5.514;2022-09-02T11:18:24;25.00;99.90
24226;DHT22;51462;51.422;5.514;2022-09-02T11:23:45;25.00;99.30
24226;DHT22;51462;51.422;5.514;2022-09-02T11:26:27;25.40;99.10
24226;DHT22;51462;51.422;5.514;2022-09-02T11:29:09;25.40;96.60
24226;DHT22;51462;51.422;5.514;2022-09-02T11:32:12;25.20;99.70
24226;DHT22;51462;51.422;5.514;2022-09-02T11:34:46;25.50;99.80
24226;DHT22;51462;51.422;5.514;2022-09-02T11:37:28;25.70;97.80
24226;DHT22;51462;51.422;5.514;2022-09-02T11:40:06;25.70;98.70
24226;DHT22;51462;51.422;5.514;2022-09-02T11:53:44;26.40;96.90
24226;DHT22;51462;51.422;5.514;2022-09-02T11:56:20;26.60;94.60
24226;DHT22;51462;51.422;5.514;2022-09-02T11:58:50;27.10;93.80
24226;DHT22;51462;51.422;5.514;2022-09-02T12:04:04;27.10;95.30
24226;DHT22;51462;51.422;5.514;2022-09-02T12:06:31;26.70;97.40
24226;DHT22;51462;51.422;5.514;2022-09-02T12:09:00;26.90;96.90
24226;DHT22;51462;51.422;5.514;2022-09-02T12:11:47;27.30;94.30
24226;DHT22;51462;51.422;5.514;2022-09-02T12:17:02;27.60;95.50
24226;DHT22;51462;51.422;5.514;2022-09-02T12:24:55;27.40;95.60
24226;DHT22;51462;51.422;5.514;2022-09-02T12:27:39;27.30;96.60
24226;DHT22;51462;51.422;5.514;2022-09-02T12:30:09;27.50;96.50
24226;DHT22;51462;51.422;5.514;2022-09-02T12:37:56;28.20;92.20
24226;DHT22;51462;51.422;5.514;2022-09-02T12:40:52;28.00;95.20
24226;DHT22;51462;51.422;5.514;2022-09-02T12:52:00;28.90;93.80
24226;DHT22;51462;51.422;5.514;2022-09-02T12:54:44;28.70;94.10
24226;DHT22;51462;51.422;5.514;2022-09-02T12:57:13;28.70;93.00
24226;DHT22;51462;51.422;5.514;2022-09-02T12:59:41;28.80;92.90
24226;DHT22;51462;51.422;5.514;2022-09-02T13:16:03;29.80;91.60
24226;DHT22;51462;51.422;5.514;2022-09-02T13:18:58;30.20;91.10
24226;DHT22;51462;51.422;5.514;2022-09-02T13:28:00;29.80;84.00
24226;DHT22;51462;51.422;5.514;2022-09-02T13:33:07;30.10;92.00
24226;DHT22;51462;51.422;5.514;2022-09-02T13:35:37;29.70;90.60
24226;DHT22;51462;51.422;5.514;2022-09-02T13:38:04;29.90;90.30
24226;DHT22;51462;51.422;5.514;2022-09-02T13:40:34;30.40;91.80
24226;DHT22;51462;51.422;5.514;2022-09-02T13:43:03;30.60;87.90
24226;DHT22;51462;51.422;5.514;2022-09-02T13:45:40;30.00;92.20
24226;DHT22;51462;51.422;5.514;2022-09-02T13:48:15;30.40;89.50
24226;DHT22;51462;51.422;5.514;2022-09-02T13:50:46;30.60;84.00
24226;DHT22;51462;51.422;5.514;2022-09-02T13:53:34;30.60;91.90
24226;DHT22;51462;51.422;5.514;2022-09-02T13:56:02;30.50;91.90
24226;DHT22;51462;51.422;5.514;2022-09-02T14:00:56;30.00;87.70
24226;DHT22;51462;51.422;5.514;2022-09-02T14:03:23;30.10;88.80
24226;DHT22;51462;51.422;5.514;2022-09-02T14:05:50;30.40;90.60
24226;DHT22;51462;51.422;5.514;2022-09-02T14:08:24;30.00;92.40
24226;DHT22;51462;51.422;5.514;2022-09-02T14:10:54;30.00;90.80
24226;DHT22;51462;51.422;5.514;2022-09-02T14:13:21;30.30;89.20
24226;DHT22;51462;51.422;5.514;2022-09-02T14:15:47;31.80;90.70
24226;DHT22;51462;51.422;5.514;2022-09-02T14:23:22;31.30;81.30
24226;DHT22;51462;51.422;5.514;2022-09-02T14:25:57;30.70;90.80
24226;DHT22;51462;51.422;5.514;2022-09-02T14:28:26;32.60;88.20
24226;DHT22;51462;51.422;5.514;2022-09-02T14:31:01;32.40;87.10
24226;DHT22;51462;51.422;5.514;2022-09-02T14:33:40;32.10;87.70
24226;DHT22;51462;51.422;5.514;2022-09-02T14:36:28;32.70;80.70
24226;DHT22;51462;51.422;5.514;2022-09-02T14:38:57;31.90;82.90
24226;DHT22;51462;51.422;5.514;2022-09-02T14:41:34;32.10;87.00
24226;DHT22;51462;51.422;5.514;2022-09-02T14:46:53;31.10;84.50
24226;DHT22;51462;51.422;5.514;2022-09-02T14:49:28;31.00;88.50
24226;DHT22;51462;51.422;5.514;2022-09-02T14:52:02;31.70;84.80
24226;DHT22;51462;51.422;5.514;2022-09-02T14:54:38;31.20;86.50
24226;DHT22;51462;51.422;5.514;2022-09-02T14:57:05;31.60;75.00
24226;DHT22;51462;51.422;5.514;2022-09-02T14:59:43;31.80;87.40
24226;DHT22;51462;51.422;5.514;2022-09-02T15:04:55;32.60;84.20
24226;DHT22;51462;51.422;5.514;2022-09-02T15:07:22;31.70;89.00
24226;DHT22;51462;51.422;5.514;2022-09-02T15:09:48;31.60;86.90
24226;DHT22;51462;51.422;5.514;2022-09-02T15:12:17;31.50;87.00
24226;DHT22;51462;51.422;5.514;2022-09-02T15:14:44;31.10;90.40
24226;DHT22;51462;51.422;5.514;2022-09-02T15:17:12;31.10;86.90
24226;DHT22;51462;51.422;5.514;2022-09-02T15:19:38;31.40;90.60
24226;DHT22;51462;51.422;5.514;2022-09-02T15:22:04;31.20;88.20
24226;DHT22;51462;51.422;5.514;2022-09-02T15:24:29;31.10;90.50
24226;DHT22;51462;51.422;5.514;2022-09-02T15:26:55;31.30;90.00
24226;DHT22;51462;51.422;5.514;2022-09-02T15:29:21;31.40;87.80
24226;DHT22;51462;51.422;5.514;2022-09-02T15:31:50;31.60;84.50
24226;DHT22;51462;51.422;5.514;2022-09-02T15:34:15;31.80;88.20
24226;DHT22;51462;51.422;5.514;2022-09-02T15:36:41;31.90;84.90
24226;DHT22;51462;51.422;5.514;2022-09-02T15:39:07;32.00;86.00
24226;DHT22;51462;51.422;5.514;2022-09-02T15:41:32;31.90;85.60
24226;DHT22;51462;51.422;5.514;2022-09-02T15:43:59;31.90;84.70
24226;DHT22;51462;51.422;5.514;2022-09-02T15:46:29;31.80;88.60
24226;DHT22;51462;51.422;5.514;2022-09-02T15:48:59;32.00;84.60
24226;DHT22;51462;51.422;5.514;2022-09-02T15:51:25;32.10;85.80
24226;DHT22;51462;51.422;5.514;2022-09-02T15:54:03;32.50;84.60
24226;DHT22;51462;51.422;5.514;2022-09-02T15:56:30;32.40;84.20
24226;DHT22;51462;51.422;5.514;2022-09-02T15:59:04;31.90;86.60
24226;DHT22;51462;51.422;5.514;2022-09-02T16:01:34;31.80;89.00
24226;DHT22;51462;51.422;5.514;2022-09-02T16:04:04;31.80;85.90
24226;DHT22;51462;51.422;5.514;2022-09-02T16:06:31;31.60;88.00
24226;DHT22;51462;51.422;5.514;2022-09-02T16:08:58;31.80;75.40
24226;DHT22;51462;51.422;5.514;2022-09-02T16:11:24;31.50;85.90
24226;DHT22;51462;51.422;5.514;2022-09-02T16:13:50;31.50;86.90
24226;DHT22;51462;51.422;5.514;2022-09-02T16:16:17;31.40;84.50
24226;DHT22;51462;51.422;5.514;2022-09-02T16:18:43;31.30;88.60
24226;DHT22;51462;51.422;5.514;2022-09-02T16:21:10;31.40;82.90
24226;DHT22;51462;51.422;5.514;2022-09-02T16:23:37;31.60;83.40
24226;DHT22;51462;51.422;5.514;2022-09-02T16:26:08;31.90;80.00
24226;DHT22;51462;51.422;5.514;2022-09-02T16:28:38;32.00;79.60
24226;DHT22;51462;51.422;5.514;2022-09-02T16:31:06;31.90;83.80
24226;DHT22;51462;51.422;5.514;2022-09-02T16:33:33;31.70;79.80
24226;DHT22;51462;51.422;5.514;2022-09-02T16:35:59;31.60;88.40
24226;DHT22;51462;51.422;5.514;2022-09-02T16:38:24;31.60;83.10
24226;DHT22;51462;51.422;5.514;2022-09-02T16:40:51;31.20;81.10
24226;DHT22;51462;51.422;5.514;2022-09-02T16:43:17;30.90;80.30
24226;DHT22;51462;51.422;5.514;2022-09-02T16:45:44;31.00;86.70
24226;DHT22;51462;51.422;5.514;2022-09-02T16:48:10;31.20;78.70
24226;DHT22;51462;51.422;5.514;2022-09-02T16:50:36;31.40;80.70
24226;DHT22;51462;51.422;5.514;2022-09-02T16:53:02;31.00;76.90
24226;DHT22;51462;51.422;5.514;2022-09-02T16:55:27;31.00;88.00
24226;DHT22;51462;51.422;5.514;2022-09-02T16:57:54;30.90;85.60
24226;DHT22;51462;51.422;5.514;2022-09-02T17:00:20;30.90;86.30
24226;DHT22;51462;51.422;5.514;2022-09-02T17:02:47;30.60;87.20
24226;DHT22;51462;51.422;5.514;2022-09-02T17:05:13;30.60;84.20
24226;DHT22;51462;51.422;5.514;2022-09-02T17:07:41;30.40;90.60
24226;DHT22;51462;51.422;5.514;2022-09-02T17:10:09;30.30;88.80
24226;DHT22;51462;51.422;5.514;2022-09-02T17:12:34;30.30;89.70
24226;DHT22;51462;51.422;5.514;2022-09-02T17:15:00;30.40;90.20
24226;DHT22;51462;51.422;5.514;2022-09-02T17:17:26;30.10;86.70
24226;DHT22;51462;51.422;5.514;2022-09-02T17:19:51;30.30;86.20
24226;DHT22;51462;51.422;5.514;2022-09-02T17:22:17;30.30;90.20
24226;DHT22;51462;51.422;5.514;2022-09-02T17:24:45;30.50;89.60
24226;DHT22;51462;51.422;5.514;2022-09-02T17:27:10;30.30;79.10
24226;DHT22;51462;51.422;5.514;2022-09-02T17:29:36;30.30;82.60
24226;DHT22;51462;51.422;5.514;2022-09-02T17:32:04;30.50;89.30
24226;DHT22;51462;51.422;5.514;2022-09-02T17:34:31;30.40;89.00
24226;DHT22;51462;51.422;5.514;2022-09-02T17:36:58;30.20;79.60
24226;DHT22;51462;51.422;5.514;2022-09-02T17:39:24;30.30;90.00
24226;DHT22;51462;51.422;5.514;2022-09-02T17:41:50;30.30;89.30
24226;DHT22;51462;51.422;5.514;2022-09-02T17:44:21;30.00;84.80
24226;DHT22;51462;51.422;5.514;2022-09-02T17:46:48;30.10;90.30